createdAt,value
2022-11-24T00:01:10.660Z,14.10
2022-11-24T00:03:38.654Z,14.60
2022-11-24T00:06:09.099Z,16.20
2022-11-24T00:08:38.221Z,16.00
2022-11-24T00:11:07.753Z,15.00
2022-11-24T00:13:36.204Z,14.60
2022-11-24T00:16:07.858Z,15.20
2022-11-24T00:18:35.493Z,15.00
2022-11-24T00:21:03.704Z,14.10
2022-11-24T00:23:31.443Z,14.80
2022-11-24T00:26:06.132Z,15.00
2022-11-24T00:28:35.083Z,15.50
2022-11-24T00:31:04.118Z,15.00
2022-11-24T00:33:32.144Z,16.70
2022-11-24T00:36:00.636Z,15.10
2022-11-24T00:38:28.423Z,13.40
2022-11-24T00:40:56.068Z,14.50
2022-11-24T00:43:23.616Z,11.70
2022-11-24T00:45:51.296Z,14.50
2022-11-24T00:48:18.996Z,14.70
2022-11-24T00:51:02.281Z,17.50
2022-11-24T00:53:30.586Z,16.30
2022-11-24T00:55:58.571Z,19.80
2022-11-24T00:58:26.278Z,16.40
2022-11-24T01:00:54.000Z,17.20
2022-11-24T01:03:21.938Z,15.80
2022-11-24T01:05:49.529Z,17.20
2022-11-24T01:08:17.081Z,17.80
2022-11-24T01:10:44.690Z,15.50
2022-11-24T01:13:12.264Z,13.40
2022-11-24T01:15:40.171Z,16.90
2022-11-24T01:18:07.855Z,15.70
2022-11-24T01:20:36.728Z,18.40
2022-11-24T01:23:04.393Z,16.80
2022-11-24T01:25:31.949Z,19.20
2022-11-24T01:27:59.525Z,17.80
2022-11-24T01:30:27.101Z,18.20
2022-11-24T01:32:54.771Z,18.70
2022-11-24T01:35:22.349Z,16.80
2022-11-24T01:37:49.955Z,22.30
2022-11-24T01:40:17.560Z,20.20
2022-11-24T01:42:50.597Z,20.60
2022-11-24T01:45:35.660Z,21.60
2022-11-24T01:48:07.114Z,19.60
2022-11-24T01:50:36.116Z,19.40
2022-11-24T01:53:04.971Z,20.50
2022-11-24T01:55:37.038Z,19.90
2022-11-24T01:58:13.358Z,20.20
2022-11-24T02:00:44.218Z,19.00
2022-11-24T02:03:15.685Z,21.60
2022-11-24T02:05:50.236Z,21.50
2022-11-24T02:08:28.608Z,22.00
2022-11-24T02:10:56.903Z,21.20
2022-11-24T02:13:24.984Z,19.80
2022-11-24T02:15:53.137Z,19.20
2022-11-24T02:18:21.139Z,20.50
2022-11-24T02:20:48.826Z,20.20
2022-11-24T02:23:28.212Z,22.80
2022-11-24T02:26:28.094Z,20.40
2022-11-24T02:28:56.673Z,21.30
2022-11-24T02:31:24.296Z,20.30
2022-11-24T02:33:52.096Z,22.70
2022-11-24T02:36:19.665Z,20.10
2022-11-24T02:38:47.321Z,18.80
2022-11-24T02:41:19.120Z,22.80
2022-11-24T02:43:51.391Z,22.30
2022-11-24T02:46:19.058Z,25.50
2022-11-24T02:48:46.703Z,23.60
2022-11-24T02:51:14.325Z,27.90
2022-11-24T02:53:41.902Z,23.10
2022-11-24T02:56:09.606Z,22.80
2022-11-24T02:58:37.183Z,22.10
2022-11-24T03:01:05.052Z,22.00
2022-11-24T03:03:32.760Z,26.70
2022-11-24T03:06:00.394Z,28.00
2022-11-24T03:08:28.071Z,27.60
2022-11-24T03:10:55.719Z,27.10
2022-11-24T03:13:23.289Z,26.30
2022-11-24T03:15:50.956Z,25.70
2022-11-24T03:18:18.585Z,25.60
2022-11-24T03:20:46.237Z,22.70
2022-11-24T03:23:13.860Z,29.50
2022-11-24T03:25:41.432Z,26.20
2022-11-24T03:28:09.341Z,31.20
2022-11-24T03:30:36.920Z,26.90
2022-11-24T03:33:04.568Z,31.60
2022-11-24T03:35:32.245Z,30.40
2022-11-24T03:37:59.871Z,39.60
2022-11-24T03:40:27.431Z,32.30
2022-11-24T03:42:55.016Z,32.20
2022-11-24T03:45:44.841Z,35.00
2022-11-24T03:48:10.247Z,34.20
2022-11-24T03:50:37.978Z,33.90
2022-11-24T03:53:05.641Z,39.50
2022-11-24T03:55:33.224Z,41.30
2022-11-24T03:58:00.794Z,30.20
2022-11-24T04:00:28.415Z,35.10
2022-11-24T04:02:56.047Z,37.20
2022-11-24T04:05:23.682Z,40.50
2022-11-24T04:07:51.288Z,39.80
2022-11-24T04:10:18.983Z,33.60
2022-11-24T04:12:46.658Z,33.50
2022-11-24T04:15:19.203Z,37.80
2022-11-24T04:17:49.422Z,37.60
2022-11-24T04:20:17.350Z,49.50
2022-11-24T04:22:44.930Z,37.70
2022-11-24T04:25:12.698Z,44.80
2022-11-24T04:27:40.322Z,40.10
2022-11-24T04:30:08.326Z,43.30
2022-11-24T04:32:36.613Z,40.30
2022-11-24T04:35:04.754Z,45.70
2022-11-24T04:37:32.326Z,45.00
2022-11-24T04:39:59.917Z,40.70
2022-11-24T04:42:27.525Z,46.40
2022-11-24T04:44:55.080Z,47.10
2022-11-24T04:47:25.101Z,44.50
2022-11-24T04:49:53.635Z,45.90
2022-11-24T04:52:23.732Z,44.80
2022-11-24T04:54:51.539Z,46.90
2022-11-24T04:57:25.146Z,46.70
2022-11-24T04:59:53.960Z,57.00
2022-11-24T05:02:22.390Z,43.20
2022-11-24T05:04:50.157Z,46.80
2022-11-24T05:07:19.624Z,43.20
2022-11-24T05:09:58.891Z,46.10
2022-11-24T05:12:28.171Z,47.00
2022-11-24T05:14:55.777Z,48.00
2022-11-24T05:17:23.441Z,47.80
2022-11-24T05:19:51.055Z,40.90
2022-11-24T05:22:18.719Z,39.20
2022-11-24T05:24:46.339Z,46.30
2022-11-24T05:27:14.256Z,48.20
2022-11-24T05:29:42.367Z,42.00
2022-11-24T05:32:09.980Z,52.90
2022-11-24T05:34:38.457Z,45.20
2022-11-24T05:37:07.036Z,48.80
2022-11-24T05:39:36.291Z,42.40
2022-11-24T05:42:06.019Z,47.40
2022-11-24T05:44:33.846Z,47.20
2022-11-24T05:47:01.683Z,52.20
2022-11-24T05:49:29.282Z,55.80
2022-11-24T05:51:56.944Z,45.50
2022-11-24T05:54:24.509Z,42.90
2022-11-24T05:56:52.101Z,54.10
2022-11-24T05:59:19.688Z,49.40
2022-11-24T06:01:47.625Z,50.00
2022-11-24T06:04:15.489Z,44.70
2022-11-24T06:06:43.239Z,40.10
2022-11-24T06:09:10.846Z,47.60
2022-11-24T06:11:38.455Z,39.90
2022-11-24T06:14:10.877Z,37.40
2022-11-24T06:16:39.031Z,37.80
2022-11-24T06:19:06.784Z,46.30
2022-11-24T06:21:34.381Z,43.80
2022-11-24T06:24:02.056Z,50.40
2022-11-24T06:26:29.830Z,45.60
2022-11-24T06:28:57.521Z,47.60
2022-11-24T06:31:25.470Z,36.70
2022-11-24T06:33:53.667Z,42.50
2022-11-24T06:36:21.296Z,39.40
2022-11-24T06:38:48.918Z,41.60
2022-11-24T06:41:17.502Z,38.70
2022-11-24T06:43:45.857Z,42.30
2022-11-24T06:46:13.736Z,40.40
2022-11-24T06:48:41.413Z,38.60
2022-11-24T06:51:11.686Z,42.70
2022-11-24T06:53:40.609Z,40.90
2022-11-24T06:56:16.719Z,43.40
2022-11-24T06:58:47.039Z,40.50
2022-11-24T07:01:17.113Z,40.90
2022-11-24T07:03:45.277Z,38.00
2022-11-24T07:06:12.917Z,43.80
2022-11-24T07:08:40.547Z,38.00
2022-11-24T07:11:10.577Z,30.80
2022-11-24T07:13:38.718Z,40.80
2022-11-24T07:16:21.744Z,33.80
2022-11-24T07:18:50.791Z,36.80
2022-11-24T07:21:19.662Z,36.00
2022-11-24T07:23:55.758Z,34.40
2022-11-24T07:26:24.097Z,39.30
2022-11-24T07:28:51.972Z,34.50
2022-11-24T07:31:22.179Z,31.10
2022-11-24T07:33:54.947Z,37.30
2022-11-24T07:36:23.391Z,30.60
2022-11-24T07:38:50.964Z,38.20
2022-11-24T07:41:19.620Z,29.10
2022-11-24T07:43:48.549Z,36.60
2022-11-24T07:46:18.122Z,28.40
2022-11-24T07:48:46.329Z,31.00
2022-11-24T07:51:14.510Z,32.60
2022-11-24T07:53:42.117Z,24.10
2022-11-24T07:56:10.025Z,27.70
2022-11-24T07:58:38.198Z,35.20
2022-11-24T08:01:18.518Z,31.50
2022-11-24T08:03:47.185Z,32.40
2022-11-24T08:06:24.969Z,33.30
2022-11-24T08:08:54.809Z,37.30
2022-11-24T08:11:22.675Z,35.50
2022-11-24T08:13:50.619Z,33.70
2022-11-24T08:16:19.518Z,36.90
2022-11-24T08:18:53.243Z,31.40
2022-11-24T08:21:22.227Z,33.40
2022-11-24T08:23:49.895Z,35.20
2022-11-24T08:26:17.507Z,36.10
2022-11-24T08:28:46.662Z,34.90
2022-11-24T08:31:16.649Z,36.20
2022-11-24T08:33:44.760Z,32.70
2022-11-24T08:36:16.030Z,34.10
2022-11-24T08:38:44.138Z,27.90
2022-11-24T08:41:15.161Z,31.90
2022-11-24T08:43:43.109Z,33.90
2022-11-24T08:46:16.352Z,38.20
2022-11-24T08:48:52.473Z,31.50
2022-11-24T08:51:22.792Z,38.70
2022-11-24T08:53:54.605Z,37.80
2022-11-24T08:56:22.275Z,32.60
2022-11-24T08:58:49.920Z,31.90
2022-11-24T09:01:17.962Z,36.30
2022-11-24T09:03:50.773Z,28.50
2022-11-24T09:06:21.178Z,43.60
2022-11-24T09:08:48.965Z,37.40
2022-11-24T09:11:17.481Z,34.20
2022-11-24T09:13:45.504Z,36.80
2022-11-24T09:16:19.352Z,38.30
2022-11-24T09:18:47.446Z,33.90
2022-11-24T09:21:18.721Z,33.10
2022-11-24T09:23:48.507Z,40.10
2022-11-24T09:26:18.916Z,35.50
2022-11-24T09:28:47.200Z,39.60
2022-11-24T09:31:17.610Z,32.10
2022-11-24T09:33:45.629Z,33.70
2022-11-24T09:36:14.300Z,34.30
2022-11-24T09:38:42.292Z,34.00
2022-11-24T09:41:28.297Z,35.30
2022-11-24T09:44:13.653Z,28.10
2022-11-24T09:46:56.608Z,36.60
2022-11-24T09:49:33.485Z,32.30
2022-11-24T09:52:08.612Z,39.10
2022-11-24T09:54:39.911Z,33.90
2022-11-24T09:57:11.707Z,31.50
2022-11-24T09:59:41.143Z,30.90
2022-11-24T10:02:12.914Z,30.70
2022-11-24T10:04:46.459Z,32.20
2022-11-24T10:54:16.031Z,29.40
2022-11-24T10:56:46.415Z,28.30
2022-11-24T10:59:32.558Z,30.30
2022-11-24T11:02:00.725Z,33.40
2022-11-24T11:04:33.952Z,31.70
2022-11-24T11:07:14.797Z,29.90
2022-11-24T11:09:42.449Z,29.90
2022-11-24T11:12:43.296Z,29.30
2022-11-24T11:15:30.983Z,30.70
2022-11-24T11:18:01.708Z,32.90
2022-11-24T11:20:34.108Z,31.80
2022-11-24T11:23:14.681Z,32.00
2022-11-24T11:25:42.408Z,28.80
2022-11-24T11:28:28.088Z,32.10
2022-11-24T11:31:21.324Z,29.60
2022-11-24T11:34:14.422Z,24.80
2022-11-24T11:36:48.988Z,28.60
2022-11-24T11:39:31.874Z,30.00
2022-11-24T11:42:45.411Z,25.00
2022-11-24T11:45:13.281Z,26.40
2022-11-24T11:47:59.490Z,26.40
2022-11-24T11:51:21.314Z,19.30
2022-11-24T11:53:42.105Z,22.50
2022-11-24T11:56:30.223Z,26.60
2022-11-24T11:59:23.411Z,23.30
2022-11-24T12:02:53.426Z,23.90
2022-11-24T12:05:46.103Z,28.00
2022-11-24T12:09:19.080Z,23.90
2022-11-24T12:12:19.684Z,21.80
2022-11-24T12:15:20.391Z,19.20
2022-11-24T12:17:52.919Z,18.00
2022-11-24T12:20:29.376Z,20.90
2022-11-24T12:23:07.804Z,21.70
2022-11-24T12:25:45.440Z,20.30
2022-11-24T12:28:51.422Z,19.70
2022-11-24T12:31:52.537Z,18.40
2022-11-24T12:34:35.164Z,22.20
2022-11-24T12:37:26.377Z,23.60
2022-11-24T12:40:03.963Z,21.50
2022-11-24T12:42:59.485Z,22.60
2022-11-24T12:45:40.502Z,20.40
2022-11-24T12:48:14.104Z,18.20
2022-11-24T12:50:45.819Z,20.10
2022-11-24T12:53:24.717Z,21.90
2022-11-24T12:55:54.359Z,15.60
2022-11-24T12:58:37.077Z,18.70
2022-11-24T13:01:25.209Z,20.80
2022-11-24T13:04:11.026Z,17.30
2022-11-24T13:06:52.279Z,19.40
2022-11-24T13:09:20.417Z,24.40
2022-11-24T13:11:53.165Z,21.50
2022-11-24T13:14:28.729Z,21.00
2022-11-24T13:19:49.655Z,20.20
2022-11-24T13:22:22.799Z,19.70
2022-11-24T13:25:23.591Z,22.20
2022-11-24T13:28:05.585Z,19.20
2022-11-24T13:33:16.225Z,14.70
2022-11-24T13:36:03.166Z,21.70
2022-11-24T13:38:44.002Z,18.00
2022-11-24T13:41:31.616Z,22.90
2022-11-24T13:44:14.643Z,19.20
2022-11-24T13:47:07.770Z,16.40
2022-11-24T13:49:43.578Z,18.40
2022-11-24T13:52:36.103Z,22.00
2022-11-24T13:55:12.774Z,19.60
2022-11-24T13:57:49.238Z,18.90
2022-11-24T14:00:33.240Z,18.70
2022-11-24T14:03:05.335Z,22.30
2022-11-24T14:05:46.004Z,21.10
2022-11-24T14:08:32.691Z,20.40
2022-11-24T14:11:02.579Z,17.90
2022-11-24T14:13:32.680Z,16.90
2022-11-24T14:16:14.708Z,22.00
2022-11-24T14:18:44.950Z,18.70
2022-11-24T14:21:25.296Z,17.10
2022-11-24T14:23:59.956Z,21.20
2022-11-24T14:26:36.379Z,19.40
2022-11-24T14:29:14.344Z,18.20
2022-11-24T14:31:51.621Z,16.50
2022-11-24T14:34:20.739Z,17.40
2022-11-24T14:36:49.495Z,19.80
2022-11-24T14:39:20.149Z,18.20
2022-11-24T14:42:16.344Z,25.90
2022-11-24T14:44:59.650Z,18.10
2022-11-24T14:47:33.081Z,20.40
2022-11-24T14:50:26.854Z,20.20
2022-11-24T14:52:56.656Z,21.30
2022-11-24T14:55:24.357Z,19.80
2022-11-24T14:57:52.199Z,22.00
2022-11-24T15:00:25.689Z,17.50
2022-11-24T15:02:56.097Z,25.10
2022-11-24T15:05:25.507Z,16.70
2022-11-24T15:08:03.011Z,18.40
2022-11-24T15:10:37.401Z,22.00
2022-11-24T15:13:15.127Z,20.90
2022-11-24T15:15:55.318Z,19.50
2022-11-24T15:18:48.354Z,20.80
2022-11-24T15:21:37.100Z,19.40
2022-11-24T15:24:19.820Z,18.70
2022-11-24T15:26:47.917Z,23.00
2022-11-24T15:29:15.683Z,21.40
2022-11-24T15:31:46.463Z,17.40
2022-11-24T15:34:18.542Z,16.70
2022-11-24T15:36:46.129Z,26.40
2022-11-24T15:39:14.241Z,20.00
2022-11-24T15:41:41.949Z,20.20
2022-11-24T15:44:10.165Z,21.60
2022-11-24T15:46:38.203Z,20.40
2022-11-24T15:49:06.685Z,21.10
2022-11-24T15:51:35.843Z,24.10
2022-11-24T15:54:03.668Z,23.70
2022-11-24T15:56:34.077Z,25.50
2022-11-24T15:59:04.106Z,21.60
2022-11-24T16:01:33.457Z,24.40
2022-11-24T16:04:02.141Z,25.90
2022-11-24T16:06:29.819Z,24.50
2022-11-24T16:08:57.619Z,15.70
2022-11-24T16:11:25.483Z,24.30
2022-11-24T16:13:54.382Z,22.50
2022-11-24T16:16:23.944Z,17.10
2022-11-24T16:18:51.700Z,18.60
2022-11-24T16:21:19.325Z,19.90
2022-11-24T16:23:48.307Z,22.70
2022-11-24T16:26:15.984Z,20.70
2022-11-24T16:28:46.199Z,27.40
2022-11-24T16:31:14.167Z,22.00
2022-11-24T16:33:41.809Z,21.20
2022-11-24T16:36:10.001Z,25.80
2022-11-24T16:38:37.642Z,22.10
2022-11-24T16:41:05.285Z,22.80
2022-11-24T16:43:32.863Z,24.60
2022-11-24T16:46:20.761Z,26.30
2022-11-24T16:48:51.022Z,22.50
2022-11-24T16:51:22.116Z,24.80
2022-11-24T16:53:57.827Z,24.00
2022-11-24T16:56:26.627Z,19.60
2022-11-24T16:58:54.503Z,22.60
2022-11-24T17:01:22.806Z,20.00
2022-11-24T17:03:50.430Z,21.80
2022-11-24T17:06:18.175Z,25.90
2022-11-24T17:08:47.000Z,20.30
2022-11-24T17:11:17.611Z,23.00
2022-11-24T17:13:46.710Z,24.20
2022-11-24T17:16:17.626Z,21.70
2022-11-24T17:18:47.545Z,22.70
2022-11-24T17:21:17.691Z,24.90
2022-11-24T17:23:46.247Z,24.80
2022-11-24T17:26:15.931Z,22.80
2022-11-24T17:28:44.077Z,23.40
2022-11-24T17:31:25.953Z,22.00
2022-11-24T17:33:55.869Z,23.80
2022-11-24T17:36:23.857Z,26.00
2022-11-24T17:38:52.068Z,21.60
2022-11-24T17:41:20.622Z,23.40
2022-11-24T17:43:52.891Z,21.60
2022-11-24T17:46:20.585Z,25.60
2022-11-24T17:48:48.419Z,24.70
2022-11-24T17:51:19.141Z,26.10
2022-11-24T17:53:49.086Z,18.00
2022-11-24T17:56:19.860Z,23.90
2022-11-24T17:58:47.534Z,20.90
2022-11-24T18:01:15.489Z,25.20
2022-11-24T18:03:43.332Z,23.80
2022-11-24T18:06:13.348Z,24.50
2022-11-24T18:08:43.796Z,22.70
2022-11-24T18:11:14.695Z,20.80
2022-11-24T18:14:01.183Z,18.90
2022-11-24T18:16:31.788Z,23.50
2022-11-24T18:19:09.921Z,21.50
2022-11-24T18:21:40.288Z,22.60
2022-11-24T18:24:10.448Z,20.00
2022-11-24T18:26:39.652Z,21.70
2022-11-24T18:29:08.046Z,21.30
2022-11-24T18:31:36.341Z,20.20
2022-11-24T18:34:05.822Z,25.80
2022-11-24T18:36:34.209Z,20.90
2022-11-24T18:39:03.472Z,22.00
2022-11-24T18:41:31.860Z,22.20
2022-11-24T18:44:00.734Z,20.00
2022-11-24T18:46:28.571Z,25.50
2022-11-24T18:48:56.208Z,25.70
2022-11-24T18:51:23.768Z,19.60
2022-11-24T18:53:52.771Z,29.50
2022-11-24T18:56:20.733Z,23.00
2022-11-24T18:58:51.985Z,22.50
2022-11-24T19:01:23.201Z,27.30
2022-11-24T19:03:54.485Z,20.70
2022-11-24T19:06:25.273Z,21.20
2022-11-24T19:08:53.961Z,17.90
2022-11-24T19:11:27.796Z,25.10
2022-11-24T19:13:56.569Z,19.20
2022-11-24T19:16:24.591Z,21.20
2022-11-24T19:18:54.931Z,25.00
2022-11-24T19:21:23.130Z,26.30
2022-11-24T19:23:50.687Z,21.00
2022-11-24T19:26:18.379Z,19.00
2022-11-24T19:28:46.301Z,20.90
2022-11-24T19:31:16.189Z,23.60
2022-11-24T19:33:44.488Z,25.10
2022-11-24T19:36:20.465Z,23.00
2022-11-24T19:38:56.145Z,23.80
2022-11-24T19:41:26.899Z,21.70
2022-11-24T19:43:55.363Z,22.70
2022-11-24T19:46:24.176Z,20.00
2022-11-24T19:48:52.054Z,27.90
2022-11-24T19:51:22.594Z,20.80
2022-11-24T19:53:50.223Z,23.30
2022-11-24T19:56:23.296Z,24.50
2022-11-24T19:58:51.915Z,23.20
2022-11-24T20:01:22.186Z,23.20
2022-11-24T20:03:58.203Z,25.10
2022-11-24T20:06:28.114Z,20.10
2022-11-24T20:08:57.934Z,25.30
2022-11-24T20:11:28.681Z,19.50
2022-11-24T20:13:57.396Z,21.10
2022-11-24T20:16:29.316Z,24.60
2022-11-24T20:19:03.000Z,20.80
2022-11-24T20:21:30.595Z,29.60
2022-11-24T20:24:19.888Z,27.80
2022-11-24T20:26:52.662Z,23.60
2022-11-24T20:29:20.506Z,27.90
2022-11-24T20:31:50.758Z,24.90
2022-11-24T20:34:19.563Z,22.00
2022-11-24T20:36:47.777Z,28.80
2022-11-24T20:39:18.946Z,28.70
2022-11-24T20:41:46.937Z,27.60
2022-11-24T20:44:16.826Z,27.40
2022-11-24T20:46:45.953Z,22.70
2022-11-24T20:49:16.445Z,27.50
2022-11-24T20:51:44.789Z,26.50
2022-11-24T20:54:13.328Z,22.00
2022-11-24T20:56:44.280Z,27.90
2022-11-24T20:59:21.193Z,25.40
2022-11-24T21:01:50.783Z,19.60
2022-11-24T21:04:24.304Z,22.50
2022-11-24T21:06:52.129Z,26.50
2022-11-24T21:09:20.154Z,20.60
2022-11-24T21:11:48.564Z,21.80
2022-11-24T21:14:18.140Z,21.70
2022-11-24T21:16:45.807Z,24.10
2022-11-24T21:19:14.988Z,21.60
2022-11-24T21:21:43.173Z,22.90
2022-11-24T21:24:16.151Z,19.80
2022-11-24T21:26:45.410Z,23.60
2022-11-24T21:29:14.900Z,19.70
2022-11-24T21:31:42.956Z,20.80
2022-11-24T21:34:14.860Z,22.20
2022-11-24T21:36:42.882Z,21.60
2022-11-24T21:39:12.447Z,24.00
2022-11-24T21:41:40.966Z,23.40
2022-11-24T21:44:10.238Z,23.90
2022-11-24T21:46:43.567Z,25.10
2022-11-24T21:49:13.445Z,23.00
2022-11-24T21:51:41.133Z,30.60
2022-11-24T21:54:09.101Z,24.80
2022-11-24T21:56:36.717Z,21.40
2022-11-24T21:59:04.307Z,27.10
2022-11-24T22:01:32.005Z,27.00
2022-11-24T22:03:59.629Z,25.60
2022-11-24T22:06:27.291Z,22.40
2022-11-24T22:08:54.928Z,20.30
2022-11-24T22:11:24.471Z,23.70
2022-11-24T22:13:52.640Z,22.90
2022-11-24T22:16:22.905Z,27.40
2022-11-24T22:18:51.304Z,23.00
2022-11-24T22:21:21.392Z,26.90
2022-11-24T22:23:51.471Z,22.60
2022-11-24T22:26:21.328Z,23.40
2022-11-24T22:28:49.581Z,28.20
2022-11-24T22:31:31.236Z,25.90
2022-11-24T22:36:34.621Z,22.10
2022-11-24T22:39:11.409Z,23.30
2022-11-24T22:41:43.549Z,25.70
2022-11-24T22:44:11.273Z,28.60
2022-11-24T22:46:38.886Z,26.00
2022-11-24T22:49:06.474Z,23.40
2022-11-24T22:51:37.749Z,25.50
2022-11-24T22:54:05.849Z,27.70
2022-11-24T22:56:33.902Z,26.20
2022-11-24T22:59:02.202Z,22.50
2022-11-24T23:01:31.216Z,25.80
2022-11-24T23:03:59.488Z,26.30
2022-11-24T23:06:29.141Z,29.10
2022-11-24T23:08:58.345Z,27.10
2022-11-24T23:11:37.183Z,24.40
2022-11-24T23:14:08.171Z,27.10
2022-11-24T23:16:35.896Z,22.60
2022-11-24T23:19:04.147Z,24.50
2022-11-24T23:21:34.354Z,22.10
2022-11-24T23:24:04.321Z,23.50
2022-11-24T23:26:37.489Z,24.70
2022-11-24T23:29:06.172Z,22.60
2022-11-24T23:31:34.422Z,23.20
2022-11-24T23:34:03.761Z,23.60
2022-11-24T23:36:32.738Z,23.00
2022-11-24T23:39:06.102Z,20.00
2022-11-24T23:41:33.965Z,25.20
2022-11-24T23:44:01.617Z,24.10
2022-11-24T23:46:29.594Z,23.10
2022-11-24T23:48:57.296Z,23.70
2022-11-24T23:51:29.944Z,26.40
2022-11-24T23:53:58.213Z,20.40
2022-11-24T23:56:28.325Z,25.70
2022-11-24T23:58:55.903Z,22.70
